Ana Sayfa
METAR-TAF:

METAR-TAF

Havaalanları :

Gaziantep Havalimanı

Gaziantep, Türkiye

Enlem: 37-05N, Boylam: 037-22E, yükseklik: 701 m

Güncel hava durumu gözlemi

Rapor saat 08:20 UTC de 33 dakika önce yapıldı.
Rüzgar güney/güneybatıdan 2 kt
Sıcaklık 35°C
Nem 14%
Basınç 1006 hPa
Görüş mesafesi 10 km veya daha fazla
1500 m altında bulut yok ve kümülonimbus yok

METAR: LTAJ 150820Z 20002KT CAVOK 35/04 Q1006 NOSIG

Saat: 11:53 (08:53 UTC)

Tahmin

Rapor saat 04:40 UTC de 4 saat ve 13 dakika önce yapıldı.
Ayın 15'si saat 06 UTC'den ayın 16'si saat 06 UTC'ye kadar geçerli Tahmin
Rüzgar değişken yönden 2 kt
Görüş mesafesi 10 km veya daha fazla
1500 m altında bulut yok ve kümülonimbus yok
Dönüşüyor
ayın 15'si saat 08 UTC'den ayın 15'si saat 10 UTC'ye kadar
Rüzgar batıdan 12 kt
Dönüşüyor
ayın 15'si saat 21 UTC'den ayın 15'si saat 24 UTC'ye kadar
Rüzgar değişken yönden 2 kt

TAF: LTAJ 150440Z 1506/1606 VRB02KT CAVOK BECMG 1508/1510 27012KT BECMG 1521/1524 VRB02KT

4.000'den fazla havaalanı için hava durumu gözlemleri ve tahminleri (METAR ve TAF raporları).

Kullanılabilir istasyonlar harita üzerinde sarı ve kırmızı noktalarla gösterilir.

İstasyonun adını görmek için fareyi noktanın üzerinde gezdirin.

Sonrasında hava gözlem ve tahminlerini görmek için tıklayın.

Haritayı değiştirmek için: yaklaştırmak için siyah artı işaretli yeşil düğmeye ve uzaklaştırmak için de eksi işaretli düğmeye hızla tıklayın; bitişik haritalar için yeşil okları kullanın.


METAR-TAF: